Time;durP1;ratioP1;P1;durP2;ratioP2;P2;SDS_P1;SDS_P2;PMS_P1;PMS_P2;Temp;Humidity;BMP_temperature;BMP_pressure;BME280_temperature;BME280_humidity;BME280_pressure;Samples;Min_cycle;Max_cycle;Signal;HPM_P1;HPM_P2
2023/08/29 00:00:31;;;;;;;7.60;7.10;;;17.00;99.90;;;;;;5033700;28;20397;-60
2023/08/29 00:02:56;;;;;;;7.97;7.47;;;17.10;99.90;;;;;;5032935;28;20268;-60
2023/08/29 00:05:22;;;;;;;8.00;7.50;;;17.20;99.90;;;;;;5033171;28;20605;-60
2023/08/29 00:07:48;;;;;;;9.20;8.50;;;17.20;99.90;;;;;;5034262;28;20170;-60
2023/08/29 00:10:14;;;;;;;8.73;8.23;;;17.30;99.90;;;;;;5033202;28;20174;-60
2023/08/29 00:12:42;;;;;;;8.50;7.90;;;17.30;99.90;;;;;;5033089;28;20173;-60
2023/08/29 00:15:10;;;;;;;8.77;8.27;;;17.40;99.90;;;;;;5033544;28;20536;-60
2023/08/29 00:17:35;;;;;;;8.73;8.10;;;17.40;99.90;;;;;;5033354;28;20421;-60
2023/08/29 00:20:02;;;;;;;8.17;7.77;;;17.40;99.90;;;;;;5032166;28;20417;-60
2023/08/29 00:22:28;;;;;;;8.30;7.80;;;17.50;99.90;;;;;;5032232;28;20927;-60
2023/08/29 00:24:56;;;;;;;8.90;8.10;;;17.50;99.90;;;;;;5033874;28;20409;-60
2023/08/29 00:27:22;;;;;;;8.20;7.70;;;17.50;99.90;;;;;;5032880;28;20456;-60
2023/08/29 00:29:48;;;;;;;8.33;7.70;;;17.50;99.90;;;;;;5033765;28;20393;-60
2023/08/29 00:32:14;;;;;;;8.53;7.73;;;17.50;99.90;;;;;;5032526;28;20966;-60
2023/08/29 00:34:40;;;;;;;8.00;7.53;;;17.50;99.90;;;;;;5032840;28;20628;-60
2023/08/29 00:37:06;;;;;;;8.00;7.50;;;17.60;99.90;;;;;;5033578;28;20405;-60
2023/08/29 00:39:31;;;;;;;7.77;7.27;;;17.50;99.90;;;;;;5032474;28;20272;-60
2023/08/29 00:41:58;;;;;;;8.17;7.57;;;17.60;99.90;;;;;;5033257;28;20409;-60
2023/08/29 00:44:23;;;;;;;8.10;7.50;;;17.50;99.90;;;;;;5032909;28;20393;-60
2023/08/29 00:46:49;;;;;;;7.97;7.37;;;17.50;99.90;;;;;;5032962;28;20413;-60
2023/08/29 00:49:18;;;;;;;7.80;7.20;;;17.50;99.90;;;;;;5032332;28;20179;-60
2023/08/29 00:51:45;;;;;;;8.00;7.50;;;17.50;99.90;;;;;;5032174;28;20504;-60
2023/08/29 00:54:15;;;;;;;7.60;7.10;;;17.50;99.90;;;;;;5032256;28;20512;-60
2023/08/29 00:56:42;;;;;;;8.17;7.67;;;17.50;99.90;;;;;;5032362;28;20677;-60
2023/08/29 00:59:08;;;;;;;7.60;7.20;;;17.50;99.90;;;;;;5033043;28;20461;-60
2023/08/29 01:01:35;;;;;;;7.93;7.20;;;17.50;99.90;;;;;;5031046;28;20935;-60
2023/08/29 01:04:02;;;;;;;7.77;7.30;;;17.50;99.90;;;;;;5032109;28;20492;-60
2023/08/29 01:06:32;;;;;;;7.83;7.23;;;17.50;99.90;;;;;;5032334;28;20413;-60
2023/08/29 01:09:02;;;;;;;7.50;7.00;;;17.50;99.90;;;;;;5032639;28;20466;-60
2023/08/29 01:11:45;;;;;;;7.77;7.30;;;17.50;99.90;;;;;;5031568;28;20445;-60
2023/08/29 01:14:29;;;;;;;7.80;7.30;;;17.40;99.90;;;;;;5032765;28;20939;-60
2023/08/29 01:17:08;;;;;;;7.97;7.37;;;17.40;99.90;;;;;;5032893;28;20401;-60
2023/08/29 01:19:39;;;;;;;6.93;6.53;;;17.40;99.90;;;;;;5031938;28;20528;-60
2023/08/29 01:22:14;;;;;;;8.67;7.03;;;17.40;99.90;;;;;;5032406;28;20768;-60
2023/08/29 01:24:53;;;;;;;7.50;6.97;;;17.40;99.90;;;;;;5031698;28;20803;-60
2023/08/29 01:27:19;;;;;;;7.50;7.10;;;17.40;99.90;;;;;;5032091;28;20475;-60
2023/08/29 01:29:46;;;;;;;6.53;6.13;;;17.30;99.90;;;;;;5031808;28;20673;-60
2023/08/29 01:32:14;;;;;;;7.20;6.70;;;17.30;99.90;;;;;;5031963;28;20425;-60
2023/08/29 01:34:43;;;;;;;7.90;7.37;;;17.30;99.90;;;;;;5031582;28;20516;-60
2023/08/29 01:37:09;;;;;;;6.97;6.47;;;17.30;99.90;;;;;;5032467;28;20462;-60
2023/08/29 01:39:35;;;;;;;7.77;7.27;;;17.30;99.90;;;;;;5031118;28;20940;-60
2023/08/29 01:42:00;;;;;;;7.27;6.80;;;17.30;99.90;;;;;;5032363;28;20516;-60
2023/08/29 01:44:26;;;;;;;7.37;6.93;;;17.30;99.90;;;;;;5031021;28;20173;-60
2023/08/29 01:46:52;;;;;;;7.43;6.93;;;17.30;99.90;;;;;;5032515;28;20233;-60
2023/08/29 01:49:18;;;;;;;7.43;6.93;;;17.30;99.90;;;;;;5032309;28;20181;-60
2023/08/29 01:51:44;;;;;;;7.50;7.00;;;17.30;99.90;;;;;;5031621;28;20404;-60
2023/08/29 01:54:10;;;;;;;7.47;6.90;;;17.30;99.90;;;;;;5032129;28;20417;-60
2023/08/29 01:56:42;;;;;;;7.73;7.23;;;17.30;99.90;;;;;;5030302;28;20482;-60
2023/08/29 01:59:08;;;;;;;7.60;7.03;;;17.30;99.90;;;;;;5031792;28;20190;-60
2023/08/29 02:01:34;;;;;;;7.30;6.90;;;17.30;99.90;;;;;;5032559;28;20431;-60
2023/08/29 02:04:00;;;;;;;7.70;7.20;;;17.30;99.90;;;;;;5035764;28;20464;-60
2023/08/29 02:06:25;;;;;;;7.87;7.33;;;17.30;99.90;;;;;;5035473;28;20192;-60
2023/08/29 02:08:51;;;;;;;7.20;6.70;;;17.30;99.90;;;;;;5035787;28;20174;-60
2023/08/29 02:11:17;;;;;;;7.43;6.93;;;17.30;99.90;;;;;;5036277;28;20508;-60
2023/08/29 02:13:42;;;;;;;6.83;6.40;;;17.30;99.90;;;;;;5035492;28;20245;-60
2023/08/29 02:16:08;;;;;;;7.87;7.40;;;17.20;99.90;;;;;;5035576;28;20174;-60
2023/08/29 02:18:34;;;;;;;7.17;6.63;;;17.20;99.90;;;;;;5035262;28;20190;-60
2023/08/29 02:21:00;;;;;;;8.50;7.80;;;17.20;99.90;;;;;;5035913;28;20178;-60
2023/08/29 02:23:26;;;;;;;6.93;6.63;;;17.20;99.90;;;;;;5035320;28;20202;-60
2023/08/29 02:26:05;;;;;;;7.97;7.27;;;17.20;99.90;;;;;;5034169;28;20178;-60
2023/08/29 02:28:36;;;;;;;7.57;7.07;;;17.20;99.90;;;;;;5034863;28;20457;-60
2023/08/29 02:31:05;;;;;;;6.80;6.40;;;17.20;99.90;;;;;;5036088;28;20446;-60
2023/08/29 02:33:33;;;;;;;7.90;7.40;;;17.10;99.90;;;;;;5034308;28;20427;-60
2023/08/29 02:35:59;;;;;;;7.13;6.73;;;17.10;99.90;;;;;;5019535;28;20424;-60
2023/08/29 02:38:25;;;;;;;7.20;6.70;;;17.10;99.90;;;;;;5035763;28;20589;-60
2023/08/29 02:40:50;;;;;;;7.53;7.03;;;17.10;99.90;;;;;;5034841;28;20844;-60
2023/08/29 02:43:16;;;;;;;7.80;7.33;;;17.10;99.90;;;;;;5035389;28;20178;-60
2023/08/29 02:45:42;;;;;;;7.93;7.43;;;17.10;99.90;;;;;;5034866;28;20174;-60
2023/08/29 02:48:07;;;;;;;8.17;7.67;;;17.10;99.90;;;;;;5017568;28;20182;-60
2023/08/29 02:50:33;;;;;;;8.50;8.00;;;17.10;99.90;;;;;;5034704;28;20201;-60
2023/08/29 02:52:59;;;;;;;9.20;8.50;;;17.10;99.90;;;;;;5035620;28;20538;-60
2023/08/29 02:55:25;;;;;;;8.47;7.90;;;17.10;99.90;;;;;;5034059;28;20490;-60
2023/08/29 02:57:51;;;;;;;8.20;7.60;;;17.10;99.90;;;;;;5034217;28;20182;-60
2023/08/29 03:00:18;;;;;;;7.60;7.10;;;17.10;99.90;;;;;;5035411;28;20528;-60
2023/08/29 03:02:44;;;;;;;7.00;6.60;;;17.00;99.90;;;;;;5034402;28;20183;-60
2023/08/29 03:05:10;;;;;;;7.50;7.10;;;17.00;99.90;;;;;;5035207;28;20483;-59
2023/08/29 03:07:35;;;;;;;7.80;7.30;;;17.00;99.90;;;;;;5032705;28;20178;-60
2023/08/29 03:10:01;;;;;;;7.93;7.43;;;17.00;99.90;;;;;;5034922;28;20177;-60
2023/08/29 03:12:27;;;;;;;7.90;7.50;;;17.00;99.90;;;;;;5033706;28;20178;-60
2023/08/29 03:14:53;;;;;;;8.07;7.40;;;17.00;99.90;;;;;;5033945;28;20219;-60
2023/08/29 03:17:20;;;;;;;7.93;7.40;;;17.00;99.90;;;;;;5034741;28;20631;-60
2023/08/29 03:19:47;;;;;;;9.00;8.40;;;17.00;99.90;;;;;;5032552;28;20456;-60
2023/08/29 03:22:13;;;;;;;8.33;7.70;;;17.00;99.90;;;;;;5034310;28;20924;-60
2023/08/29 03:24:39;;;;;;;8.33;7.73;;;17.00;99.90;;;;;;5033005;28;20951;-60
2023/08/29 03:27:05;;;;;;;8.30;7.77;;;17.00;99.90;;;;;;5034524;28;20864;-60
2023/08/29 03:29:31;;;;;;;7.30;6.90;;;17.00;99.90;;;;;;5033439;28;20425;-60
2023/08/29 03:31:57;;;;;;;8.30;7.80;;;17.00;99.90;;;;;;5034463;28;20817;-60
2023/08/29 03:34:22;;;;;;;8.30;7.70;;;16.90;99.90;;;;;;5034488;28;20162;-60
2023/08/29 03:36:48;;;;;;;8.20;7.60;;;17.00;99.90;;;;;;5033582;28;20182;-60
2023/08/29 03:39:14;;;;;;;7.83;7.33;;;17.00;99.90;;;;;;5034467;28;20220;-60
2023/08/29 03:41:40;;;;;;;8.10;7.40;;;17.00;99.90;;;;;;5033559;28;20182;-60
2023/08/29 03:44:05;;;;;;;8.10;7.50;;;16.90;99.90;;;;;;5033917;28;20703;-60
2023/08/29 03:46:31;;;;;;;8.60;7.90;;;16.90;99.90;;;;;;5033892;28;20170;-60
2023/08/29 03:48:57;;;;;;;7.77;7.27;;;16.90;99.90;;;;;;5034086;28;20257;-60
2023/08/29 03:51:23;;;;;;;8.43;7.73;;;16.90;99.90;;;;;;5034095;28;20911;-60
2023/08/29 03:53:48;;;;;;;8.70;7.90;;;16.90;99.90;;;;;;5032702;28;20175;-60
2023/08/29 03:56:15;;;;;;;10.03;9.30;;;16.90;99.90;;;;;;5033218;28;20174;-60
2023/08/29 03:58:41;;;;;;;8.70;7.80;;;16.90;99.90;;;;;;5033250;28;20294;-60
2023/08/29 04:01:07;;;;;;;8.20;7.67;;;16.80;99.90;;;;;;5034010;28;21060;-60
2023/08/29 04:03:33;;;;;;;8.50;7.90;;;16.70;99.90;;;;;;5033264;28;20208;-60
2023/08/29 04:05:59;;;;;;;7.57;6.97;;;16.70;99.90;;;;;;5033577;28;20508;-60
2023/08/29 04:08:25;;;;;;;7.80;7.10;;;16.70;99.90;;;;;;5033524;28;20181;-60
2023/08/29 04:10:50;;;;;;;9.40;8.80;;;16.70;99.90;;;;;;5032790;28;20462;-60
2023/08/29 04:13:16;;;;;;;8.60;7.90;;;16.70;99.90;;;;;;5034071;28;20186;-60
2023/08/29 04:15:42;;;;;;;8.87;8.30;;;16.70;99.90;;;;;;5033186;28;20177;-60
2023/08/29 04:18:08;;;;;;;7.87;7.30;;;16.60;99.90;;;;;;5033410;28;20271;-60
2023/08/29 04:20:34;;;;;;;8.40;7.80;;;16.60;99.90;;;;;;5033413;28;20170;-60
2023/08/29 04:23:03;;;;;;;9.00;8.20;;;16.70;99.90;;;;;;5033315;28;20413;-61
2023/08/29 04:25:29;;;;;;;8.23;7.63;;;16.70;99.90;;;;;;5031556;28;20413;-60
2023/08/29 04:27:55;;;;;;;8.60;8.00;;;16.70;99.90;;;;;;5031945;28;20421;-62
2023/08/29 04:30:21;;;;;;;8.63;7.93;;;16.60;99.90;;;;;;5033357;28;20553;-61
2023/08/29 04:32:47;;;;;;;8.50;7.90;;;16.60;99.90;;;;;;5032752;28;20409;-60
2023/08/29 04:35:13;;;;;;;7.90;7.30;;;16.60;99.90;;;;;;5033521;28;20429;-60
2023/08/29 04:37:39;;;;;;;7.80;7.20;;;16.60;99.90;;;;;;5033038;28;20425;-60
2023/08/29 04:40:06;;;;;;;8.17;7.40;;;16.70;99.90;;;;;;5031718;28;20948;-60
2023/08/29 04:42:33;;;;;;;8.37;7.77;;;16.70;99.90;;;;;;5033221;28;20420;-60
2023/08/29 04:45:04;;;;;;;7.73;7.13;;;16.70;99.90;;;;;;5031157;28;20914;-60
2023/08/29 04:47:30;;;;;;;7.90;7.40;;;16.70;99.90;;;;;;5046422;28;20420;-60
2023/08/29 04:49:56;;;;;;;8.60;7.90;;;16.70;99.90;;;;;;5032386;28;20451;-60
2023/08/29 04:52:22;;;;;;;8.40;7.80;;;16.70;99.90;;;;;;5032955;28;20445;-60
2023/08/29 04:54:48;;;;;;;7.83;7.20;;;16.70;99.90;;;;;;5030959;28;20180;-60
2023/08/29 04:57:13;;;;;;;8.37;7.77;;;16.70;99.90;;;;;;5033122;28;20225;-60
2023/08/29 04:59:41;;;;;;;8.30;7.60;;;16.70;99.90;;;;;;5032583;28;20589;-60
2023/08/29 05:02:08;;;;;;;9.27;8.57;;;16.70;99.90;;;;;;5032045;28;20189;-60
2023/08/29 05:04:34;;;;;;;9.03;8.37;;;16.80;99.90;;;;;;5032926;28;20456;-60
2023/08/29 05:06:59;;;;;;;8.40;7.80;;;16.80;99.90;;;;;;5032060;28;20936;-60
2023/08/29 05:09:25;;;;;;;9.90;8.93;;;16.80;99.90;;;;;;5032217;28;20428;-60
2023/08/29 05:11:51;;;;;;;9.37;8.67;;;16.70;99.90;;;;;;5031762;28;20182;-60
2023/08/29 05:14:17;;;;;;;9.43;8.70;;;16.70;99.90;;;;;;5032372;28;20170;-60
2023/08/29 05:16:42;;;;;;;7.93;7.33;;;16.70;99.90;;;;;;5031206;28;20250;-60
2023/08/29 05:19:08;;;;;;;9.00;8.23;;;16.70;99.90;;;;;;5031910;28;20209;-60
2023/08/29 05:21:34;;;;;;;9.73;8.90;;;16.70;99.90;;;;;;5030643;28;20181;-60
2023/08/29 05:24:01;;;;;;;8.67;8.07;;;16.70;99.90;;;;;;5031129;28;20192;-60
2023/08/29 05:26:27;;;;;;;9.33;8.63;;;16.70;99.90;;;;;;5031179;28;20819;-60
2023/08/29 05:28:53;;;;;;;8.90;8.20;;;16.70;99.90;;;;;;5030430;28;20532;-60
2023/08/29 05:31:18;;;;;;;10.37;9.13;;;16.70;99.90;;;;;;5032639;28;20629;-60
2023/08/29 05:33:44;;;;;;;9.13;8.43;;;16.70;99.90;;;;;;5031412;28;20205;-60
2023/08/29 05:36:10;;;;;;;10.13;9.33;;;16.70;99.90;;;;;;5031732;28;20179;-59
2023/08/29 05:38:36;;;;;;;10.17;9.37;;;16.70;99.90;;;;;;5032035;28;20206;-59
2023/08/29 05:41:02;;;;;;;11.40;10.43;;;16.70;99.90;;;;;;5030717;28;20187;-58
2023/08/29 05:43:28;;;;;;;10.53;9.63;;;16.70;99.90;;;;;;5031945;28;20170;-59
2023/08/29 05:45:55;;;;;;;9.50;8.80;;;16.80;99.90;;;;;;5024444;28;20436;-59
2023/08/29 05:48:21;;;;;;;9.67;8.83;;;16.80;99.90;;;;;;5031250;28;20633;-59
2023/08/29 05:50:50;;;;;;;10.33;9.37;;;16.90;99.90;;;;;;5031215;28;20415;-59
2023/08/29 05:53:16;;;;;;;11.13;9.57;;;16.90;99.90;;;;;;5030414;28;20175;-58
2023/08/29 05:55:42;;;;;;;11.43;10.43;;;16.90;99.90;;;;;;5031085;28;20496;-59
2023/08/29 05:58:08;;;;;;;12.40;11.20;;;16.90;99.90;;;;;;5032412;28;20443;-58
2023/08/29 06:00:34;;;;;;;18.47;13.80;;;17.00;99.90;;;;;;5030816;28;20601;-59
2023/08/29 06:03:03;;;;;;;15.70;14.20;;;17.00;99.90;;;;;;5028792;28;20183;-58
2023/08/29 06:05:31;;;;;;;17.50;13.80;;;17.00;99.90;;;;;;5029080;28;20494;-59
2023/08/29 06:08:00;;;;;;;18.93;14.47;;;17.10;99.90;;;;;;5030815;28;20511;-58
2023/08/29 06:10:26;;;;;;;19.80;14.03;;;17.10;99.90;;;;;;5031925;28;20409;-59
2023/08/29 06:12:52;;;;;;;16.93;14.73;;;17.10;99.90;;;;;;5031443;28;20421;-58
2023/08/29 06:15:18;;;;;;;16.67;14.00;;;17.20;99.90;;;;;;5032347;28;20913;-59
2023/08/29 06:17:43;;;;;;;14.70;13.30;;;17.20;99.90;;;;;;5031630;28;20178;-58
2023/08/29 06:20:11;;;;;;;16.37;14.10;;;17.20;99.90;;;;;;5032304;28;20194;-59
2023/08/29 06:22:37;;;;;;;14.13;12.80;;;17.20;99.90;;;;;;5032460;28;20171;-59
2023/08/29 06:25:04;;;;;;;14.87;13.50;;;17.20;99.90;;;;;;5020835;28;20406;-59
2023/08/29 06:27:30;;;;;;;14.93;13.50;;;17.20;99.90;;;;;;5012758;28;20406;-58
2023/08/29 06:29:56;;;;;;;14.83;13.53;;;17.20;99.90;;;;;;5017296;28;20421;-58
2023/08/29 06:32:22;;;;;;;15.43;14.07;;;17.10;99.90;;;;;;5032152;28;20397;-59
2023/08/29 06:34:48;;;;;;;14.87;13.67;;;16.80;99.90;;;;;;5030873;28;20421;-58
2023/08/29 06:37:14;;;;;;;15.60;13.90;;;16.80;99.90;;;;;;5031661;28;20967;-59
2023/08/29 06:39:42;;;;;;;15.80;14.30;;;16.80;99.90;;;;;;5031727;28;20700;-58
2023/08/29 06:42:08;;;;;;;14.30;12.80;;;16.90;99.90;;;;;;5031794;28;20432;-58
2023/08/29 06:44:34;;;;;;;14.17;12.73;;;16.80;99.90;;;;;;5032028;28;20397;-59
2023/08/29 06:47:00;;;;;;;18.87;13.93;;;16.90;99.90;;;;;;5028794;28;20482;-58
2023/08/29 06:49:26;;;;;;;14.47;13.07;;;16.90;99.90;;;;;;5034939;28;20641;-59
2023/08/29 06:51:52;;;;;;;12.70;11.73;;;17.00;99.90;;;;;;5032439;28;20578;-59
2023/08/29 06:54:18;;;;;;;12.57;10.60;;;17.10;99.90;;;;;;5035377;28;20445;-59
2023/08/29 06:56:44;;;;;;;17.23;11.67;;;17.10;99.90;;;;;;5035141;28;20479;-58
2023/08/29 06:59:10;;;;;;;12.90;11.70;;;17.10;99.90;;;;;;5035378;28;20699;-59
2023/08/29 07:01:37;;;;;;;14.20;12.90;;;17.20;99.90;;;;;;5033572;28;20182;-61
2023/08/29 07:04:04;;;;;;;13.97;12.47;;;17.30;99.90;;;;;;5033069;28;20453;-60
2023/08/29 07:06:30;;;;;;;13.80;12.50;;;17.30;99.90;;;;;;5035107;28;20746;-60
2023/08/29 07:08:55;;;;;;;14.47;13.17;;;17.40;99.90;;;;;;5033063;28;20428;-60
2023/08/29 07:11:21;;;;;;;15.67;14.13;;;17.40;99.90;;;;;;5034669;28;20225;-59
2023/08/29 07:13:47;;;;;;;12.10;11.00;;;17.60;99.90;;;;;;5032659;28;20236;-65
2023/08/29 07:16:13;;;;;;;13.17;12.00;;;17.60;99.90;;;;;;5034602;28;20170;-61
2023/08/29 07:18:38;;;;;;;14.87;13.43;;;18.10;99.90;;;;;;5033823;28;20631;-56
2023/08/29 07:21:05;;;;;;;15.80;14.30;;;18.60;99.90;;;;;;5032813;28;20190;-59
2023/08/29 07:23:31;;;;;;;16.70;15.30;;;18.90;99.90;;;;;;5034257;28;20178;-59
2023/08/29 07:25:57;;;;;;;20.23;16.80;;;19.10;99.90;;;;;;5025999;28;20467;-59
2023/08/29 07:28:23;;;;;;;17.10;15.37;;;19.40;99.90;;;;;;5033249;28;20182;-59
2023/08/29 07:30:51;;;;;;;17.23;15.53;;;19.60;99.90;;;;;;5032631;28;20429;-60
2023/08/29 07:33:17;;;;;;;16.13;14.53;;;19.80;99.90;;;;;;5033869;28;20178;-59
2023/08/29 07:35:45;;;;;;;15.37;14.03;;;19.90;99.90;;;;;;5038105;28;20920;-59
2023/08/29 07:38:12;;;;;;;17.17;15.57;;;20.10;99.90;;;;;;5025065;28;20425;-59
2023/08/29 07:40:38;;;;;;;17.50;15.90;;;20.20;99.90;;;;;;5032963;28;20892;-59
2023/08/29 07:43:06;;;;;;;17.37;15.93;;;20.30;99.90;;;;;;5040772;28;20456;-59
2023/08/29 07:45:32;;;;;;;19.37;17.60;;;20.30;99.90;;;;;;5034294;28;20413;-59
2023/08/29 07:47:59;;;;;;;16.10;14.70;;;20.40;99.90;;;;;;5033753;28;20408;-59
2023/08/29 07:50:25;;;;;;;18.40;16.70;;;20.60;99.90;;;;;;5033995;28;20427;-59
2023/08/29 07:52:51;;;;;;;18.10;16.33;;;20.60;99.90;;;;;;5033749;28;20413;-59
2023/08/29 07:55:17;;;;;;;18.87;17.07;;;20.70;99.90;;;;;;5030057;28;20896;-59
2023/08/29 07:57:43;;;;;;;19.43;17.63;;;20.70;99.90;;;;;;5028180;28;20178;-62
2023/08/29 08:00:10;;;;;;;19.47;17.77;;;20.70;99.90;;;;;;5028767;28;20514;-61
2023/08/29 08:02:39;;;;;;;17.60;15.93;;;20.60;99.90;;;;;;5026932;28;20428;-61
2023/08/29 08:05:06;;;;;;;20.40;18.50;;;20.40;99.90;;;;;;5032787;28;20540;-60
2023/08/29 08:07:46;;;;;;;19.03;17.33;;;20.20;99.90;;;;;;5034114;28;20444;-60
2023/08/29 08:10:14;;;;;;;19.87;17.97;;;20.00;99.90;;;;;;5034307;28;20401;-61
2023/08/29 08:12:41;;;;;;;19.90;18.10;;;19.80;99.90;;;;;;5033844;28;20412;-60
2023/08/29 08:15:08;;;;;;;20.50;18.50;;;19.70;99.90;;;;;;5033449;28;20662;-61
2023/08/29 08:17:34;;;;;;;20.20;18.30;;;19.60;99.90;;;;;;5033934;28;20402;-61
2023/08/29 08:20:01;;;;;;;20.90;18.70;;;19.50;99.90;;;;;;5033340;28;20448;-60
2023/08/29 08:22:26;;;;;;;19.87;18.07;;;19.60;99.90;;;;;;5034065;28;20405;-60
2023/08/29 08:24:52;;;;;;;18.87;17.07;;;19.80;99.90;;;;;;5032308;28;20425;-60
2023/08/29 08:27:19;;;;;;;16.00;14.50;;;19.80;99.90;;;;;;5032896;28;20172;-60
2023/08/29 08:29:44;;;;;;;15.07;13.50;;;19.90;99.90;;;;;;5033401;28;20178;-60
2023/08/29 08:32:10;;;;;;;16.27;14.67;;;20.20;99.90;;;;;;5032675;28;20510;-60
2023/08/29 08:34:36;;;;;;;17.30;15.80;;;20.40;99.90;;;;;;5033391;28;20405;-59
2023/08/29 08:37:02;;;;;;;17.90;16.00;;;20.60;99.90;;;;;;5032681;28;20232;-60
2023/08/29 08:39:31;;;;;;;18.30;16.70;;;20.70;99.90;;;;;;5029565;28;20209;-60
2023/08/29 08:41:57;;;;;;;18.40;16.67;;;20.80;99.90;;;;;;5030171;28;20408;-60
2023/08/29 08:44:25;;;;;;;16.57;15.13;;;20.90;99.90;;;;;;5033090;28;20409;-60
2023/08/29 08:46:52;;;;;;;17.67;15.87;;;21.00;99.90;;;;;;5032460;28;20446;-61
2023/08/29 08:49:19;;;;;;;11.80;10.60;;;21.10;99.90;;;;;;5033033;28;20409;-60
2023/08/29 08:51:48;;;;;;;11.20;10.27;;;21.20;99.90;;;;;;5039897;28;20412;-60
2023/08/29 08:54:15;;;;;;;10.80;9.70;;;21.40;99.90;;;;;;5032623;28;20404;-60
2023/08/29 08:56:41;;;;;;;12.00;10.90;;;21.50;99.90;;;;;;5032659;28;20919;-60
2023/08/29 08:59:09;;;;;;;16.47;14.90;;;21.60;99.90;;;;;;5039024;28;20443;-60
2023/08/29 09:01:35;;;;;;;14.20;12.80;;;21.60;99.90;;;;;;5032816;28;20500;-60
2023/08/29 09:04:01;;;;;;;13.07;11.70;;;21.70;99.90;;;;;;5032020;28;20449;-60
2023/08/29 09:06:27;;;;;;;11.80;10.80;;;21.80;99.90;;;;;;5031354;28;20429;-60
2023/08/29 09:08:56;;;;;;;13.77;12.47;;;21.90;99.90;;;;;;5029357;28;20920;-61
2023/08/29 09:11:22;;;;;;;16.10;14.50;;;21.90;99.90;;;;;;5032117;28;20163;-60
2023/08/29 09:13:49;;;;;;;15.37;13.87;;;22.00;99.90;;;;;;5031537;28;20428;-60
2023/08/29 09:16:16;;;;;;;14.70;13.40;;;22.00;99.90;;;;;;5032223;28;20171;-60
2023/08/29 09:18:49;;;;;;;12.40;11.30;;;22.10;99.90;;;;;;5032858;28;20498;-60
2023/08/29 09:21:22;;;;;;;17.17;15.67;;;22.10;99.90;;;;;;5032017;28;21000;-60
2023/08/29 09:23:48;;;;;;;42.50;35.87;;;22.00;99.90;;;;;;5032228;28;20758;-60
2023/08/29 09:26:13;;;;;;;47.23;39.07;;;21.80;99.90;;;;;;5031672;28;20397;-60
2023/08/29 09:28:40;;;;;;;225.10;164.63;;;21.80;99.90;;;;;;5032800;28;20174;-61
2023/08/29 09:31:07;;;;;;;89.60;69.10;;;21.90;99.90;;;;;;5032472;28;20492;-60
2023/08/29 09:33:36;;;;;;;41.33;31.87;;;22.00;99.90;;;;;;5032619;28;20496;-60
2023/08/29 09:36:04;;;;;;;25.27;21.97;;;22.20;99.90;;;;;;5031865;28;20738;-60
2023/08/29 09:38:36;;;;;;;18.33;16.40;;;22.20;99.90;;;;;;5032389;28;20448;-60
2023/08/29 09:41:03;;;;;;;17.43;15.73;;;22.20;99.90;;;;;;5032232;28;20453;-60
2023/08/29 09:43:30;;;;;;;15.60;14.30;;;22.30;99.90;;;;;;5031769;28;20795;-60
2023/08/29 09:45:57;;;;;;;14.33;13.13;;;22.40;99.90;;;;;;5031959;28;20409;-60
2023/08/29 09:48:23;;;;;;;13.00;11.90;;;22.40;99.90;;;;;;5032233;28;20501;-60
2023/08/29 09:50:50;;;;;;;12.93;11.80;;;22.50;99.90;;;;;;5032122;28;20492;-60
2023/08/29 09:53:20;;;;;;;12.60;11.60;;;22.40;99.90;;;;;;5030538;28;20488;-60
2023/08/29 09:55:49;;;;;;;12.50;11.40;;;22.40;99.90;;;;;;5032772;28;20447;-60
2023/08/29 09:58:20;;;;;;;15.57;14.27;;;22.50;99.90;;;;;;5031928;28;20441;-59
2023/08/29 10:00:46;;;;;;;14.60;13.10;;;22.60;99.90;;;;;;5031300;28;20861;-60
2023/08/29 10:03:12;;;;;;;14.63;13.43;;;22.60;99.90;;;;;;5031380;28;20413;-59
2023/08/29 10:05:40;;;;;;;14.43;13.23;;;22.50;99.90;;;;;;5031287;28;20466;-59
2023/08/29 10:08:16;;;;;;;14.03;13.00;;;22.60;99.90;;;;;;5029683;28;20622;-59
2023/08/29 10:10:43;;;;;;;14.57;13.47;;;22.60;99.90;;;;;;5031864;28;20452;-59
2023/08/29 10:13:10;;;;;;;23.90;21.60;;;22.70;99.90;;;;;;5030290;28;20777;-60
2023/08/29 10:15:36;;;;;;;15.53;14.10;;;22.70;99.90;;;;;;5032328;28;20402;-59
2023/08/29 10:18:02;;;;;;;12.37;11.37;;;22.80;99.90;;;;;;5031672;28;20401;-59
2023/08/29 10:20:29;;;;;;;12.47;11.37;;;22.80;99.90;;;;;;5031082;28;20417;-59
2023/08/29 10:22:55;;;;;;;12.00;11.10;;;22.80;99.90;;;;;;5032624;28;20408;-61
2023/08/29 10:25:21;;;;;;;10.77;9.97;;;22.80;99.90;;;;;;5036115;28;20894;-59
2023/08/29 10:27:49;;;;;;;10.20;9.40;;;22.70;99.90;;;;;;5036163;28;20393;-59
2023/08/29 10:30:18;;;;;;;10.43;9.50;;;22.60;99.90;;;;;;5035481;28;20472;-59
2023/08/29 10:32:46;;;;;;;10.23;9.43;;;22.60;99.90;;;;;;5035995;28;20449;-59
2023/08/29 10:35:19;;;;;;;10.13;9.40;;;22.60;99.90;;;;;;5035349;28;20793;-59
2023/08/29 10:37:49;;;;;;;9.67;8.97;;;22.50;99.90;;;;;;5034769;28;20829;-59
2023/08/29 10:40:15;;;;;;;9.77;9.07;;;22.60;99.90;;;;;;5035189;28;20532;-59
2023/08/29 10:42:52;;;;;;;9.50;8.87;;;22.50;99.90;;;;;;5033867;28;20500;-59
2023/08/29 10:45:20;;;;;;;9.30;8.67;;;22.60;99.90;;;;;;5035466;28;20849;-59
2023/08/29 10:47:46;;;;;;;11.07;10.27;;;22.80;99.90;;;;;;5035224;28;20959;-59
2023/08/29 10:50:19;;;;;;;14.43;13.23;;;22.60;99.90;;;;;;5033121;28;20911;-59
2023/08/29 10:52:45;;;;;;;10.07;9.37;;;22.50;99.90;;;;;;5036097;28;20432;-59
2023/08/29 10:55:22;;;;;;;12.53;11.60;;;22.50;99.90;;;;;;5034978;28;20793;-59
2023/08/29 10:57:48;;;;;;;13.37;12.07;;;22.70;99.90;;;;;;5035091;28;20424;-59
2023/08/29 11:00:32;;;;;;;12.43;11.43;;;22.80;99.90;;;;;;5033857;28;20495;-59
2023/08/29 11:02:59;;;;;;;10.50;9.70;;;22.80;99.90;;;;;;5035255;28;20893;-60
2023/08/29 11:05:25;;;;;;;9.30;8.60;;;22.90;99.90;;;;;;5035696;28;20527;-59
2023/08/29 11:07:50;;;;;;;10.43;9.83;;;22.90;99.90;;;;;;5035481;28;20789;-59
2023/08/29 11:10:17;;;;;;;10.17;9.47;;;22.60;99.90;;;;;;5034744;28;20174;-59
2023/08/29 11:13:06;;;;;;;10.77;10.07;;;22.40;99.90;;;;;;5035305;28;20480;-59
2023/08/29 11:15:50;;;;;;;9.03;8.43;;;22.40;99.90;;;;;;5035202;28;20414;-59
2023/08/29 11:18:28;;;;;;;9.03;8.43;;;22.40;99.90;;;;;;5034498;28;20405;-59
2023/08/29 11:20:54;;;;;;;7.60;7.10;;;22.40;99.90;;;;;;5035100;28;20412;-59
2023/08/29 11:23:21;;;;;;;7.50;7.00;;;22.40;99.90;;;;;;5034531;28;20512;-59
2023/08/29 11:25:51;;;;;;;7.90;7.40;;;22.40;99.90;;;;;;5034942;28;20174;-59
2023/08/29 11:28:17;;;;;;;6.90;6.50;;;22.50;99.90;;;;;;5034418;28;20413;-59
2023/08/29 11:30:47;;;;;;;7.00;6.60;;;22.50;99.90;;;;;;5033997;28;20413;-59
2023/08/29 11:33:14;;;;;;;7.60;7.10;;;22.60;99.90;;;;;;5033930;28;20405;-60
2023/08/29 11:35:40;;;;;;;14.83;13.63;;;22.60;99.90;;;;;;5034447;28;20462;-59
2023/08/29 11:38:06;;;;;;;12.03;11.03;;;22.60;99.90;;;;;;5034171;28;20397;-60
2023/08/29 11:40:33;;;;;;;17.77;16.13;;;22.60;99.90;;;;;;5033819;28;20915;-59
2023/08/29 11:42:59;;;;;;;15.60;14.20;;;22.60;99.90;;;;;;5034523;28;20182;-62
2023/08/29 11:45:26;;;;;;;10.17;9.47;;;22.70;99.90;;;;;;5034665;28;20405;-59
2023/08/29 11:47:52;;;;;;;9.57;8.87;;;22.60;99.90;;;;;;5034662;28;20170;-59
2023/08/29 11:50:17;;;;;;;6.63;6.03;;;22.60;99.90;;;;;;5034146;28;20994;-59
2023/08/29 11:52:43;;;;;;;5.53;5.23;;;22.60;99.90;;;;;;5034330;28;20410;-59
2023/08/29 11:55:11;;;;;;;5.90;5.60;;;22.60;99.80;;;;;;5033653;28;20167;-59
2023/08/29 11:57:38;;;;;;;5.70;5.30;;;22.70;99.30;;;;;;5034439;28;20167;-59
2023/08/29 12:00:08;;;;;;;5.73;5.43;;;22.70;99.00;;;;;;5032823;28;20449;-59
2023/08/29 12:02:34;;;;;;;6.37;5.97;;;22.60;99.90;;;;;;5033242;28;20409;-59
2023/08/29 12:05:00;;;;;;;6.87;6.37;;;22.60;99.90;;;;;;5034148;28;20453;-59
2023/08/29 12:07:33;;;;;;;6.23;5.73;;;22.40;99.60;;;;;;5034079;28;20540;-59
2023/08/29 12:10:08;;;;;;;7.00;6.43;;;22.30;98.80;;;;;;5033007;28;20464;-59
2023/08/29 12:12:37;;;;;;;6.50;6.00;;;22.20;99.70;;;;;;5033982;28;20398;-59
2023/08/29 12:15:10;;;;;;;6.70;6.20;;;22.20;99.90;;;;;;5033873;28;20745;-59
2023/08/29 12:17:48;;;;;;;7.20;6.70;;;22.10;99.90;;;;;;5034117;28;20478;-59
2023/08/29 12:20:15;;;;;;;7.57;7.07;;;22.10;99.90;;;;;;5033179;28;20524;-59
2023/08/29 12:22:48;;;;;;;10.27;8.97;;;22.10;99.90;;;;;;5033731;28;20439;-59
2023/08/29 12:25:15;;;;;;;11.70;10.60;;;22.20;99.90;;;;;;5033442;28;20389;-59
2023/08/29 12:27:41;;;;;;;11.20;10.30;;;22.30;99.90;;;;;;5033640;28;20916;-59
2023/08/29 12:30:14;;;;;;;11.27;10.20;;;22.40;99.90;;;;;;5032269;28;20429;-59
2023/08/29 12:32:42;;;;;;;10.80;10.00;;;22.60;99.90;;;;;;5030946;28;20449;-59
2023/08/29 12:35:08;;;;;;;12.23;11.17;;;22.70;99.90;;;;;;5028227;28;20426;-62
2023/08/29 12:37:34;;;;;;;10.40;9.50;;;22.90;99.90;;;;;;5032201;28;20436;-60